»·PEaware :: SKW5766 KSFO-KRDD

SKW5766 :: KSFO-KRDD

FLIGHT INFORMATION

Flight Status: Arrived
Operator:
SkyWest Airlines
More flights by this operator :: More flights under this callsign
Pilot: Paul P. (20696)
Aircraft: CANADAIR CL-600 CRJ-700
(CRJ7)
More flights by this aircraft type
Origin: KSFO San Francisco Intl
United States
Destination: KRDD Redding Mun
United States
More flights between these airports :: More routes between these airports
Route: TRUKN2 DEDHD RBL
File this flight plan on PilotEdge
Remarks: PBN / D1 DOF / 181113 REG / N770SK CODE / AA6AA1 OPR / SKW PER / C RMK / TCAS SIMBRIEF
Altitude:
(Current/Filed)
28,000ft
Speed:
(Current/Filed)
392kts
Departed: 13-Nov-18 08:56 AM
Arrived: 13-Nov-18 09:33 AM
Distance/Time
Traveled:
173nm/0:37
Distance/Time
To Go:
Arrived

Flight Plot

Page will automatically refresh every two minutes.

Flight plan parsing failed; only flown route is shown


Map Options




Map Legend


Flown Route
Filed Route
Departure Airport
Arrival Airport
Navaid (VOR, NDB)
Fix

Horizontal Profiles

Position Reports

Time Latitude Longitude Heading Altitude Ground
Speed
13-Nov-18 08:25 37.618382 -122.382038 139 20ft 0kts
13-Nov-18 08:26 37.618382 -122.382038 139 20ft 0kts
13-Nov-18 08:27 37.618382 -122.382038 139 20ft 0kts
13-Nov-18 08:28 37.618382 -122.382038 139 20ft 0kts
13-Nov-18 08:29 37.618382 -122.382038 139 20ft 0kts
13-Nov-18 08:30 37.618382 -122.382038 139 20ft 0kts
13-Nov-18 08:31 37.618382 -122.382038 139 20ft 0kts
13-Nov-18 08:32 37.618382 -122.382038 139 20ft 0kts
13-Nov-18 08:33 37.618382 -122.382038 139 20ft 0kts
13-Nov-18 08:34 37.618382 -122.382038 139 20ft 0kts
13-Nov-18 08:35 37.618382 -122.382038 139 20ft 0kts
13-Nov-18 08:36 37.618382 -122.382038 139 20ft 0kts
13-Nov-18 08:37 37.618382 -122.382038 139 20ft 0kts
13-Nov-18 08:38 37.618382 -122.382038 139 20ft 0kts
13-Nov-18 08:39 37.618382 -122.382038 139 20ft 0kts
13-Nov-18 08:40 37.618382 -122.382038 139 20ft 0kts
13-Nov-18 08:41 37.618382 -122.382038 139 20ft 0kts
13-Nov-18 08:42 37.618512 -122.382178 139 20ft 2kts
13-Nov-18 08:43 37.619004 -122.382709 139 20ft 2kts
13-Nov-18 08:44 37.619065 -122.382774 139 20ft 0kts
13-Nov-18 08:45 37.619063 -122.382773 139 20ft 0kts
13-Nov-18 08:46 37.619062 -122.382771 139 20ft 0kts
13-Nov-18 08:47 37.619060 -122.382769 139 20ft 0kts
13-Nov-18 08:48 37.619058 -122.382768 139 20ft 0kts
13-Nov-18 08:49 37.619057 -122.382766 139 20ft 0kts
13-Nov-18 08:50 37.619055 -122.382764 139 20ft 0kts
13-Nov-18 08:51 37.619034 -122.382699 94 20ft 1kts
13-Nov-18 08:52 37.619189 -122.382494 28 20ft 0kts
13-Nov-18 08:53 37.619193 -122.382491 28 20ft 0kts
13-Nov-18 08:54 37.619197 -122.382488 28 20ft 0kts
13-Nov-18 08:55 37.619093 -122.380697 127 20ft 19kts
13-Nov-18 08:56 37.614117 -122.381299 207 20ft 20kts
13-Nov-18 08:57 37.609854 -122.384047 172 20ft 9kts
13-Nov-18 08:58 37.609371 -122.383259 121 20ft 3kts
13-Nov-18 08:59 37.610952 -122.380865 27 20ft 57kts
13-Nov-18 09:00 37.640817 -122.351101 56 2495ft 148kts
13-Nov-18 09:01 37.672947 -122.294998 52 4191ft 240kts
13-Nov-18 09:02 37.714868 -122.221411 48 7072ft 273kts
13-Nov-18 09:03 37.790004 -122.202562 4 10106ft 288kts
13-Nov-18 09:04 37.875739 -122.188627 7 12236ft 331kts
13-Nov-18 09:05 37.970314 -122.173361 6 14844ft 352kts
13-Nov-18 09:06 38.069667 -122.156827 6 17490ft 368kts
13-Nov-18 09:07 38.173361 -122.139844 5 19858ft 385kts
13-Nov-18 09:08 38.281851 -122.121892 5 22006ft 402kts
13-Nov-18 09:09 38.395452 -122.114161 352 23973ft 414kts
13-Nov-18 09:10 38.511844 -122.125754 354 26031ft 426kts
13-Nov-18 09:11 38.631512 -122.133134 352 27890ft 435kts
13-Nov-18 09:12 38.754452 -122.141676 353 28518ft 437kts
13-Nov-18 09:13 38.876226 -122.150166 353 28532ft 443kts
13-Nov-18 09:14 38.998359 -122.158717 353 26618ft 427kts
13-Nov-18 09:15 39.114832 -122.166770 353 23360ft 415kts
13-Nov-18 09:16 39.226173 -122.174507 354 19571ft 387kts
13-Nov-18 09:17 39.329937 -122.181776 355 17248ft 364kts
13-Nov-18 09:18 39.431130 -122.188831 355 15596ft 364kts
13-Nov-18 09:19 39.525670 -122.195547 355 13885ft 312kts
13-Nov-18 09:20 39.610621 -122.201501 355 12182ft 303kts
13-Nov-18 09:21 39.693156 -122.207272 356 10481ft 294kts
13-Nov-18 09:22 39.774210 -122.212937 356 8782ft 289kts
13-Nov-18 09:23 39.854045 -122.218708 357 7080ft 283kts
13-Nov-18 09:24 39.931099 -122.224117 357 5381ft 273kts
13-Nov-18 09:25 40.004897 -122.229473 357 4982ft 264kts
13-Nov-18 09:26 40.077018 -122.234799 357 4095ft 253kts
13-Nov-18 09:27 40.141599 -122.240708 356 4000ft 219kts
13-Nov-18 09:28 40.195358 -122.265710 323 3984ft 192kts
13-Nov-18 09:29 40.239882 -122.297091 348 3979ft 167kts
13-Nov-18 09:30 40.286393 -122.297869 5 3990ft 166kts
13-Nov-18 09:31 40.333179 -122.294804 1 3808ft 179kts
13-Nov-18 09:32 40.379172 -122.295114 0 2826ft 146kts
13-Nov-18 09:33 40.418099 -122.295007 0 2116ft 137kts
13-Nov-18 09:34 40.455977 -122.294956 0 1419ft 137kts
13-Nov-18 09:35 40.493908 -122.294876 0 686ft 136kts
13-Nov-18 09:36 40.514213 -122.295277 274 509ft 5kts
13-Nov-18 09:37 40.511974 -122.296334 179 509ft 16kts
13-Nov-18 09:38 40.508600 -122.296930 225 509ft 17kts
13-Nov-18 09:39 40.505970 -122.298466 174 509ft 11kts
13-Nov-18 09:40 40.505434 -122.299044 314 509ft 1kts

Navigation Log

Ident Type
Flight plan parsing failed, navigation log unavailable